Participated 3 times
Between 1967 and 1972
Jacques Cadiou, France
Tour de France 2026 starts from Edinburgh, Scotland in

Stats and Facts from
Tour de France.

2026   2025   2024   2023  2022  2021  2020  2019   2018  2017   2016   2015  2014  2013   2012   2011  2010   2009   2008   2007   2006   2005   2004   2003   2002   2001   2000   1999   1998   1997  1996   1995   1994   1993   1992  1991   1990   1989   1988   1987   1986   1985   1984   1983  1982  1981   1980   1979  1978  1977   1976  1975  1974  1973   1972   1971   1970  1969   1968   1967   1966   1965  1964  1963   1962   1961   1960   1959   1958   1957  1956   1955   1954   1953   1952  1951  1950  1949   1948  1947  1939   1938   1937   1936   1935   1934   1933  1932   1931   1930  1929   1928   1927   1926  1925  1924  1923   1922   1921   1920   1919  1914   1913   1912   1911   1910  1909   1908   1907   1906  1905  1904   1903 

Tourstats
Sitemap

After stage 21 - 2026:
 16451 starters.
  5513 different riders.
  689 teams.
  2419 stages.
  470 restdays.
  469752.50 km.
  5946 abandoned riders.

Click map for 1995 route.
Facts from Tour de France 1995
  |   Stages.  |   Stage winners.  |   Days in jerseys.  |   Teams.  |   All riders.  |   All riders by age.  |   All riders from.  |  

  |   Rookies.  |   Withdrawls.  |   Average speed.  |   GC.  |   Polka  |   Green  |   White  |   Summits. (In tour)  |   Miscellaneous.  |  

Stage 18 on July 21st. 1995
Pick a stage:  Pro  1  2  3  4  5  6  7  8  9  10  11  12  13  14  15  17  18  19  20  

After stage 18:    Miguel Indurain  
  Montpon-MénestérolLimoges | Dist: 166.50km. | Winner: Lance Armstrong

Podium
4  Côte de Saint Sulpice de Mareuil François Simonafter61.00 km.


Average speed for all riders in stage:  42,477 km./hr.

1
 Lance Armstrong  Motorola03h 47' 53"=43,838  km/h

2
 Andrea Ferrigato  Telecom-ZG-Selle Italia03h 48' 26"+  00:00:33 =43,733  km/h

3
 Viatcheslav Ekimov  Novell03h 48' 37"+  00:00:44 =43,698  km/h

4  Jean-Cyril Robin  Festina03h 48' 37"+  00:00:44 =43,698  km/h

5  Maarten Den Bakker  TVM-Polis Direct03h 48' 41"+  00:00:48 =43,685  km/h

6  Andrea Tafi  Mapei-GP03h 48' 41"+  00:00:48 =43,685  km/h

7  Massimiliano Lelli  Mercatone Uno-Saeco03h 48' 51"+  00:00:58 =43,653  km/h

8  Bruno Cenghialta  Gewiss-Ballan03h 49' 40"+  00:01:47 =43,498  km/h

9  Johan Bruyneel  O.N.C.E.03h 49' 40"+  00:01:47 =43,498  km/h

10  Maximilian Sciandri  MG Maglificio-Technogym03h 49' 40"+  00:01:47 =43,498  km/h

11  Laurent Dufaux  Festina03h 50' 13"+  00:02:20 =43,394  km/h

12  Rolf Järmann  MG Maglificio-Technogym03h 50' 53"+  00:03:00 =43,269  km/h

13  Marco Pantani  Carrera Jeans-Tassoni03h 55' 28"+  00:07:35 =42,426  km/h

14  Laurent Brochard  Festina03h 55' 47"+  00:07:54 =42,369  km/h

15  Stefano Colagè  Telecom-ZG-Selle Italia03h 55' 47"+  00:07:54 =42,369  km/h

16  Andrei Tchmil  Lotto-Isoglass03h 55' 47"+  00:07:54 =42,369  km/h

17  Bo Hamburger  TVM-Polis Direct03h 55' 47"+  00:07:54 =42,369  km/h

18  Erik Zabel  Telecom-ZG-Selle Italia03h 55' 47"+  00:07:54 =42,369  km/h

19  Bjarne Riis  Gewiss-Ballan03h 55' 47"+  00:07:54 =42,369  km/h

20  Claudio Chiappucci  Carrera Jeans-Tassoni03h 55' 47"+  00:07:54 =42,369  km/h

21  Jim Van De Laer  TVM-Polis Direct03h 55' 47"+  00:07:54 =42,369  km/h

22  Laurent Jalabert  O.N.C.E.03h 55' 47"+  00:07:54 =42,369  km/h

23  Alex Zülle  O.N.C.E.03h 55' 47"+  00:07:54 =42,369  km/h

24  Vicente Aparicio  Banesto03h 55' 47"+  00:07:54 =42,369  km/h

25  Guido Bontempi  Gewiss-Ballan03h 55' 47"+  00:07:54 =42,369  km/h

26  Richard Virenque  Festina03h 55' 47"+  00:07:54 =42,369  km/h

27  Hernán Buenahora  Kelme-Avianca03h 55' 47"+  00:07:54 =42,369  km/h

28  Peter Farazijn  Lotto-Isoglass03h 55' 47"+  00:07:54 =42,369  km/h

29  Tony Rominger  Mapei-GP03h 55' 47"+  00:07:54 =42,369  km/h

30  Miguel Arroyo  Chazal-MBK-Konig03h 55' 47"+  00:07:54 =42,369  km/h

31  Fabian Jeker  Festina03h 55' 47"+  00:07:54 =42,369  km/h

32  Paolo Lanfranchi  Brescialat03h 55' 47"+  00:07:54 =42,369  km/h

33  Miguel Indurain  Banesto03h 55' 47"+  00:07:54 =42,369  km/h

34  Marino Alonso  Banesto03h 55' 47"+  00:07:54 =42,369  km/h

35  Laurent Madouas  Castorama03h 55' 47"+  00:07:54 =42,369  km/h

36  Ivan Gotti  Gewiss-Ballan03h 55' 47"+  00:07:54 =42,369  km/h

37  Erik Breukink  O.N.C.E.03h 55' 47"+  00:07:54 =42,369  km/h

38  Stephen Hodge  Festina03h 55' 47"+  00:07:54 =42,369  km/h

39  Arsenio González  Mapei-GP03h 55' 47"+  00:07:54 =42,369  km/h

40  Erik Dekker  Novell03h 55' 47"+  00:07:54 =42,369  km/h

41  Federico Muñoz  Kelme-Avianca03h 55' 47"+  00:07:54 =42,369  km/h

42  Jean-François Bernard  Chazal-MBK-Konig03h 55' 47"+  00:07:54 =42,369  km/h

43  Gérard Rué  Banesto03h 55' 47"+  00:07:54 =42,369  km/h

44  Rolf Aldag  Telecom-ZG-Selle Italia03h 55' 47"+  00:07:54 =42,369  km/h

45  Zenon Jaskuła  Aki-Gipiemme03h 55' 47"+  00:07:54 =42,369  km/h

46  Herminio Diaz Zabala  O.N.C.E.03h 55' 47"+  00:07:54 =42,369  km/h

47  Fernando Escartin  Mapei-GP03h 55' 47"+  00:07:54 =42,369  km/h

48  Vladimir Pulnikov  Telecom-ZG-Selle Italia03h 55' 47"+  00:07:54 =42,369  km/h

49  Melchor Mauri  O.N.C.E.03h 55' 47"+  00:07:54 =42,369  km/h

50  José Angel Vidal  Kelme-Avianca03h 55' 47"+  00:07:54 =42,369  km/h

51  Nicola Loda  MG Maglificio-Technogym03h 55' 47"+  00:07:54 =42,369  km/h

52  Gabriele Colombo  Gewiss-Ballan03h 55' 47"+  00:07:54 =42,369  km/h

53  Oscar Pelliccioli  Polti03h 55' 47"+  00:07:54 =42,369  km/h

54  Didier Rous  Gan03h 55' 47"+  00:07:54 =42,369  km/h

55  Yvon Ledanois  Gan03h 55' 47"+  00:07:54 =42,369  km/h

56  Eddy Bouwmans  Novell03h 55' 47"+  00:07:54 =42,369  km/h

57  Frans Maassen  Novell03h 55' 47"+  00:07:54 =42,369  km/h

58  Massimo Podenzana  Brescialat03h 55' 47"+  00:07:54 =42,369  km/h

59  Álvaro Mejía  Motorola03h 55' 47"+  00:07:54 =42,369  km/h

60  François Lemarchand  Gan03h 55' 47"+  00:07:54 =42,369  km/h

61  Laudelino Cubino  Kelme-Avianca03h 55' 47"+  00:07:54 =42,369  km/h

62  Udo Bölts  Telecom-ZG-Selle Italia03h 55' 47"+  00:07:54 =42,369  km/h

63  Enrico Zaina  Carrera Jeans-Tassoni03h 55' 47"+  00:07:54 =42,369  km/h

64  Alberto Volpi  Gewiss-Ballan03h 55' 47"+  00:07:54 =42,369  km/h

65  Neil Stephens  O.N.C.E.03h 55' 47"+  00:07:54 =42,369  km/h

66  Marcello Siboni  Carrera Jeans-Tassoni03h 55' 47"+  00:07:54 =42,369  km/h

67  Djamolidine Abduzhaparov  Novell03h 55' 47"+  00:07:54 =42,369  km/h

68  Davide Cassani  MG Maglificio-Technogym03h 55' 47"+  00:07:54 =42,369  km/h

69  Leonardo Sierra  Carrera Jeans-Tassoni03h 55' 47"+  00:07:54 =42,369  km/h

70  Georg Totschnig  Polti03h 55' 47"+  00:07:54 =42,369  km/h

71  Jesper Skibby  TVM-Polis Direct03h 55' 47"+  00:07:54 =42,369  km/h

72  Gilles Bouvard  Chazal-MBK-Konig03h 55' 47"+  00:07:54 =42,369  km/h

73  Wilfried Peeters  Mapei-GP03h 55' 47"+  00:07:54 =42,369  km/h

74  Gianni Bugno  MG Maglificio-Technogym03h 55' 47"+  00:07:54 =42,369  km/h

75  Alessio Galletti  Lampre-Panaria03h 55' 47"+  00:07:54 =42,369  km/h

76  Mauro Bettin  Aki-Gipiemme03h 55' 47"+  00:07:54 =42,369  km/h

77  Franco Vona  MG Maglificio-Technogym03h 55' 47"+  00:07:54 =42,369  km/h

78  Davide Perona  Lampre-Panaria03h 55' 47"+  00:07:54 =42,369  km/h

79  Jens Heppner  Telecom-ZG-Selle Italia03h 55' 47"+  00:07:54 =42,369  km/h

80  Artūras Kasputis  Chazal-MBK-Konig03h 55' 47"+  00:07:54 =42,369  km/h

81  José Ramon Uriarte  Banesto03h 55' 47"+  00:07:54 =42,369  km/h

82  Dario Bottaro  Gewiss-Ballan03h 55' 47"+  00:07:54 =42,369  km/h

83  Alberto Elli  MG Maglificio-Technogym03h 55' 47"+  00:07:54 =42,369  km/h

84  Rossano Brasi  Polti03h 55' 47"+  00:07:54 =42,369  km/h

85  Serguei Utchakov  Polti03h 55' 47"+  00:07:54 =42,369  km/h

86  Giovanni Fidanza  Polti03h 55' 47"+  00:07:54 =42,369  km/h

87  Marco Serpellini  Lampre-Panaria03h 55' 47"+  00:07:54 =42,369  km/h

88  Johan Museeuw  Mapei-GP03h 55' 47"+  00:07:54 =42,369  km/h

89  Flavio Vanzella  MG Maglificio-Technogym03h 55' 47"+  00:07:54 =42,369  km/h

90  Frankie Andreu  Motorola03h 55' 47"+  00:07:54 =42,369  km/h

91  Ramon Gonzalez  Banesto03h 55' 47"+  00:07:54 =42,369  km/h

92  Mario Scirea  Polti03h 55' 47"+  00:07:54 =42,369  km/h

93  Andrea Peron  Motorola03h 55' 47"+  00:07:54 =42,369  km/h

94  Armand De Las Cuevas  Castorama03h 55' 47"+  00:07:54 =42,369  km/h

95  Massimo Donati  Mercatone Uno-Saeco03h 55' 47"+  00:07:54 =42,369  km/h

96  Alexander Gontchenkov  Lampre-Panaria03h 55' 47"+  00:07:54 =42,369  km/h

97  Thierry Marie  Castorama03h 55' 47"+  00:07:54 =42,369  km/h

98  Gianluca Gorini  Aki-Gipiemme03h 55' 47"+  00:07:54 =42,369  km/h

99  Bruno Cornillet  Chazal-MBK-Konig03h 55' 47"+  00:07:54 =42,369  km/h

100  Gilles Talmant  Castorama03h 55' 47"+  00:07:54 =42,369  km/h

101  Steve Bauer  Motorola03h 55' 47"+  00:07:54 =42,369  km/h

102  Beat Zberg  Carrera Jeans-Tassoni03h 55' 47"+  00:07:54 =42,369  km/h

103  François Simon  Castorama03h 55' 47"+  00:07:54 =42,369  km/h

104  Francesco Frattini  Gewiss-Ballan03h 55' 47"+  00:07:54 =42,369  km/h

105  Giovanni Lombardi  Polti03h 55' 47"+  00:07:54 =42,369  km/h

106  Bart Voskamp  TVM-Polis Direct03h 55' 47"+  00:07:54 =42,369  km/h

107  Arvis Piziks  Novell03h 55' 47"+  00:07:54 =42,369  km/h

108  Thomas Davy  Banesto03h 56' 37"+  00:08:44 =42,220  km/h

109  Marco Milesi  Brescialat03h 56' 50"+  00:08:57 =42,182  km/h

110  Stephen Swart  Motorola03h 56' 50"+  00:08:57 =42,182  km/h

111  Eros Poli  Mercatone Uno-Saeco03h 56' 50"+  00:08:57 =42,182  km/h

112  Giancarlo Perini  Brescialat03h 57' 01"+  00:09:08 =42,149  km/h

113  Gian Matteo Fagnini  Mercatone Uno-Saeco03h 57' 15"+  00:09:22 =42,107  km/h

114  Carmelo Miranda  Banesto03h 57' 41"+  00:09:48 =42,031  km/h

115  Aitor Garmendia  Banesto03h 58' 04"+  00:10:11 =41,963  km/h


Withdrawls: 2
 RiderTeamReason
43   Gianluca Bortolami Mapei-GPDid not finish
106   Héctor Castaño Kelme-AviancaDid not finish
Todays birthdays.

1888 • Achille Serroen
1889 • Francois Magatti
1891 • Guglielmo Ceccherelli
1895 • Jules Dubois
1903 • Julien Delbecque
1915 • Emile Masson jr.
1922 • Maurice Lauze
1923 • Franco Franchi
1932 • Kurt Schneider
1940 • Franco Bitossi
1948 • Juan Zurano
1949 • Richard Pianaro
1954 • Alain Vigneron
1969 • Andrea Ferrigato
1975 • Dario Pieri
1978 • Rubén Lobato
1983 • Riccardo Riccò
1994 • Oliviero Troia
1996 • Eddie Dunbar

 

Optimized for Chrome - Edge
and Opera browsers.